Time;durP1;ratioP1;P1;durP2;ratioP2;P2;SDS_P1;SDS_P2;PMS_P1;PMS_P2;Temp;Humidity;BMP_temperature;BMP_pressure;BME280_temperature;BME280_humidity;BME280_pressure;Samples;Min_cycle;Max_cycle;Signal;HPM_P1;HPM_P2
2023/05/17 00:03:13;;;;;;;29.60;19.10;;;;;;;11.11;100.00;100345.77;185480;1233;44525;-64
2023/05/17 00:07:15;;;;;;;33.90;17.70;;;;;;;11.11;100.00;100337.42;185560;1233;44946;-63
2023/05/17 00:11:17;;;;;;;26.00;17.10;;;;;;;11.22;100.00;100339.39;185380;1235;45957;-63
2023/05/17 00:15:19;;;;;;;27.20;15.20;;;;;;;11.22;100.00;100342.72;185288;1233;43847;-62
2023/05/17 00:19:20;;;;;;;23.30;15.70;;;;;;;11.21;100.00;100347.66;185297;1233;58113;-63
2023/05/17 00:23:25;;;;;;;17.80;13.20;;;;;;;11.24;100.00;100345.55;185273;1233;46007;-64
2023/05/17 00:27:27;;;;;;;19.80;15.30;;;;;;;11.24;100.00;100346.59;185167;1233;45947;-64
2023/05/17 00:31:30;;;;;;;24.00;15.00;;;;;;;11.21;100.00;100348.70;185186;1234;45176;-64
2023/05/17 00:35:32;;;;;;;21.50;15.30;;;;;;;11.12;100.00;100348.48;185292;1236;43672;-62
2023/05/17 00:39:33;;;;;;;22.60;16.30;;;;;;;11.09;100.00;100344.34;185287;1233;58446;-64
2023/05/17 00:43:39;;;;;;;21.20;15.00;;;;;;;11.04;100.00;100349.92;185267;1233;44863;-64
2023/05/17 00:47:41;;;;;;;18.40;14.20;;;;;;;11.00;100.00;100345.08;185264;1233;44849;-63
2023/05/17 00:51:49;;;;;;;20.80;15.80;;;;;;;10.96;100.00;100349.47;185312;1233;43893;-64
2023/05/17 00:55:54;;;;;;;26.80;17.00;;;;;;;10.99;100.00;100349.42;185239;1233;43749;-64
2023/05/17 01:00:02;;;;;;;19.80;15.20;;;;;;;11.03;100.00;100345.00;185240;1233;59243;-64
2023/05/17 01:04:05;;;;;;;19.90;15.10;;;;;;;11.10;100.00;100345.64;185273;1234;44917;-63
2023/05/17 01:08:07;;;;;;;17.20;13.40;;;;;;;11.11;100.00;100350.23;185280;1233;44316;-64
2023/05/17 01:12:27;;;;;;;18.50;12.30;;;;;;;11.06;100.00;100348.69;185559;1233;44438;-64
2023/05/17 01:16:44;;;;;;;10.10;9.00;;;;;;;11.01;100.00;100351.00;185692;1233;45919;-63
2023/05/17 01:20:51;;;;;;;11.60;9.80;;;;;;;10.96;100.00;100346.14;185162;1233;58260;-64
2023/05/17 01:25:37;;;;;;;14.70;8.80;;;;;;;10.94;100.00;100351.58;185207;1233;44487;-63
2023/05/17 01:29:43;;;;;;;6.90;6.00;;;;;;;10.93;100.00;100360.05;185160;1233;45864;-64
2023/05/17 01:33:45;;;;;;;8.80;6.60;;;;;;;10.88;100.00;100362.71;185290;1233;44331;-63
2023/05/17 01:37:47;;;;;;;8.50;7.60;;;;;;;10.82;100.00;100368.14;185260;1233;43648;-63
2023/05/17 01:42:06;;;;;;;20.00;7.40;;;;;;;10.78;100.00;100370.30;185284;1233;58241;-65
2023/05/17 01:46:40;;;;;;;9.90;6.60;;;;;;;10.75;100.00;100383.86;185187;1233;45913;-64
2023/05/17 01:50:46;;;;;;;6.90;5.40;;;;;;;10.70;100.00;100388.86;185377;1233;45942;-63
2023/05/17 01:59:24;;;;;;;9.20;5.50;;;;;;;10.66;100.00;100399.95;185080;1233;44766;-63
2023/05/17 02:03:27;;;;;;;7.70;5.90;;;;;;;10.60;100.00;100403.31;185266;1236;59053;-63
2023/05/17 02:07:30;;;;;;;7.40;4.10;;;;;;;10.55;100.00;100409.86;184957;1235;84811;-86
2023/05/17 02:11:32;;;;;;;9.30;4.80;;;;;;;10.46;100.00;100412.36;182704;1232;45974;-86
2023/05/17 02:15:34;;;;;;;10.50;4.40;;;;;;;10.32;100.00;100418.92;182289;1237;46120;-83
2023/05/17 02:19:35;;;;;;;4.30;3.80;;;;;;;10.22;100.00;100418.99;182650;1232;45987;-84
2023/05/17 02:23:37;;;;;;;7.70;6.00;;;;;;;10.20;100.00;100418.65;182229;1232;57986;-83
2023/05/17 02:27:39;;;;;;;7.90;4.60;;;;;;;10.12;100.00;100420.67;182989;1232;46118;-83
2023/05/17 02:31:40;;;;;;;5.60;2.80;;;;;;;10.04;100.00;100421.83;182604;1236;45983;-82
2023/05/17 02:35:42;;;;;;;6.10;3.60;;;;;;;9.92;100.00;100423.98;182744;1232;46098;-83
2023/05/17 02:39:44;;;;;;;8.10;4.30;;;;;;;9.80;100.00;100410.70;182844;1236;46102;-83
2023/05/17 02:43:45;;;;;;;9.40;3.20;;;;;;;9.69;100.00;100404.45;183037;1232;58493;-82
2023/05/17 02:47:47;;;;;;;7.80;5.20;;;;;;;9.67;100.00;100406.20;182595;1232;46067;-82
2023/05/17 02:51:49;;;;;;;9.00;3.40;;;;;;;9.65;100.00;100410.09;182614;1232;45833;-83
2023/05/17 02:55:51;;;;;;;9.90;2.90;;;;;;;9.60;100.00;100412.88;182642;1232;46022;-83
2023/05/17 02:59:52;;;;;;;10.00;3.80;;;;;;;9.53;100.00;100418.73;182980;1236;45976;-82
2023/05/17 03:03:54;;;;;;;4.00;2.90;;;;;;;9.51;100.00;100425.95;183099;1232;59090;-82
2023/05/17 03:07:56;;;;;;;9.50;4.00;;;;;;;9.45;100.00;100433.48;182788;1232;45955;-82
2023/05/17 03:11:58;;;;;;;6.70;2.90;;;;;;;9.39;100.00;100440.48;182406;1232;45966;-82
2023/05/17 03:16:00;;;;;;;9.20;2.90;;;;;;;9.31;100.00;100449.08;183305;1232;45978;-84
2023/05/17 03:20:02;;;;;;;4.80;3.50;;;;;;;9.24;100.00;100455.70;182679;1236;45983;-86
2023/05/17 03:24:05;;;;;;;5.70;3.30;;;;;;;9.20;100.00;100455.36;182843;1232;57164;-87
2023/05/17 03:28:07;;;;;;;8.20;3.00;;;;;;;9.13;100.00;100456.67;182702;1232;46042;-86
2023/05/17 03:32:08;;;;;;;4.40;2.70;;;;;;;9.12;100.00;100459.14;182662;1232;45977;-87
2023/05/17 03:36:10;;;;;;;15.40;3.80;;;;;;;9.14;100.00;100465.13;182395;1236;46130;-88
2023/05/17 03:44:52;;;;;;;6.70;4.10;;;;;;;9.13;100.00;100476.20;185659;1233;58413;-60
2023/05/17 03:48:55;;;;;;;5.50;3.10;;;;;;;9.08;100.00;100478.14;185354;1233;45946;-60
2023/05/17 03:52:58;;;;;;;10.10;4.30;;;;;;;9.01;100.00;100484.65;185419;1234;45006;-60
2023/05/17 03:57:02;;;;;;;6.50;3.60;;;;;;;9.05;100.00;100488.10;185450;1233;43480;-62
2023/05/17 04:05:49;;;;;;;7.20;3.20;;;;;;;9.10;100.00;100499.58;185948;1233;58250;-60
2023/05/17 04:09:58;;;;;;;9.70;3.60;;;;;;;9.14;100.00;100501.38;185454;1233;44630;-60
2023/05/17 04:14:02;;;;;;;7.70;3.60;;;;;;;9.19;100.00;100498.02;185412;1233;43551;-61
2023/05/17 04:18:04;;;;;;;6.80;2.40;;;;;;;9.28;100.00;100499.30;185367;1233;44863;-60
2023/05/17 04:22:07;;;;;;;5.80;3.40;;;;;;;9.40;100.00;100497.75;185385;1234;43633;-60
2023/05/17 04:26:10;;;;;;;5.10;3.20;;;;;;;9.49;100.00;100503.98;185248;1233;57872;-59
2023/05/17 04:30:12;;;;;;;5.80;3.60;;;;;;;9.66;100.00;100514.65;185671;1233;44030;-61
2023/05/17 04:34:13;;;;;;;8.40;2.90;;;;;;;9.88;99.94;100512.65;185812;1233;44814;-62
2023/05/17 04:38:38;;;;;;;6.80;3.30;;;;;;;10.16;99.43;100516.94;185873;1233;43552;-60
2023/05/17 04:42:50;;;;;;;9.90;2.60;;;;;;;10.54;96.71;100525.00;184127;1232;46060;-90
2023/05/17 04:47:36;;;;;;;9.40;2.70;;;;;;;11.00;93.92;100525.00;185239;1234;91661;-62
2023/05/17 05:11:27;;;;;;;6.40;2.50;;;;;;;12.71;81.18;100553.29;185368;1235;93160;-63
2023/05/17 05:15:33;;;;;;;6.50;2.90;;;;;;;12.81;79.86;100559.51;185215;1233;46175;-62
2023/05/17 05:19:36;;;;;;;5.00;2.50;;;;;;;13.03;80.00;100560.23;185210;1234;44929;-62
2023/05/17 05:23:39;;;;;;;6.30;2.50;;;;;;;13.10;79.10;100558.23;185192;1233;43665;-62
2023/05/17 05:27:42;;;;;;;8.60;2.70;;;;;;;12.69;80.37;100558.58;185322;1234;43810;-62
2023/05/17 05:31:46;;;;;;;9.20;2.10;;;;;;;12.41;81.54;100554.57;185354;1234;58408;-62
2023/05/17 05:36:01;;;;;;;12.10;3.50;;;;;;;12.05;82.77;100550.29;185130;1235;45852;-62
2023/05/17 05:44:22;;;;;;;7.30;3.20;;;;;;;11.61;85.62;100561.10;185702;1233;46161;-61
2023/05/17 05:48:27;;;;;;;3.00;2.40;;;;;;;11.78;87.92;100561.35;186033;1233;43685;-62
2023/05/17 05:52:28;;;;;;;7.30;3.20;;;;;;;11.74;87.66;100559.39;186183;1233;58659;-62
2023/05/17 05:56:31;;;;;;;8.80;5.20;;;;;;;11.74;86.81;100559.03;185424;1233;43726;-62
2023/05/17 06:00:33;;;;;;;10.90;3.90;;;;;;;11.61;87.26;100565.05;185467;1232;43706;-62
2023/05/17 06:04:35;;;;;;;8.60;4.10;;;;;;;11.59;88.13;100569.86;185360;1233;45782;-61
2023/05/17 06:08:54;;;;;;;12.30;3.10;;;;;;;11.43;88.64;100570.38;185288;1234;45999;-61
2023/05/17 06:13:00;;;;;;;7.20;4.50;;;;;;;11.45;90.14;100575.59;185334;1233;58353;-63
2023/05/17 06:17:02;;;;;;;5.20;3.60;;;;;;;11.33;88.88;100588.05;185331;1233;46090;-61
2023/05/17 06:21:03;;;;;;;7.40;2.70;;;;;;;11.38;90.12;100597.41;185461;1234;44176;-61
2023/05/17 06:25:05;;;;;;;9.60;3.70;;;;;;;11.21;86.67;100611.06;185593;1233;45291;-62
2023/05/17 06:29:06;;;;;;;10.20;3.30;;;;;;;11.13;87.35;100611.31;185511;1233;43896;-61
2023/05/17 06:33:08;;;;;;;4.90;3.60;;;;;;;11.14;87.80;100613.20;185528;1233;58171;-61
2023/05/17 06:37:10;;;;;;;8.00;3.60;;;;;;;11.24;88.24;100624.27;185529;1233;45965;-61
2023/05/17 06:41:11;;;;;;;6.20;3.80;;;;;;;11.36;87.56;100622.95;185394;1233;45925;-61
2023/05/17 06:45:13;;;;;;;7.40;3.40;;;;;;;11.51;88.52;100627.30;185537;1234;43940;-61
2023/05/17 06:49:15;;;;;;;10.20;3.00;;;;;;;11.54;86.18;100635.94;185405;1235;43679;-62
2023/05/17 06:53:16;;;;;;;9.00;3.90;;;;;;;11.65;88.13;100643.82;185419;1234;58201;-61
2023/05/17 06:57:18;;;;;;;7.80;3.40;;;;;;;11.66;89.54;100646.75;185431;1233;43526;-61
2023/05/17 07:01:21;;;;;;;9.10;4.30;;;;;;;11.50;91.14;100645.33;185468;1233;46038;-61
2023/05/17 07:05:23;;;;;;;11.90;4.10;;;;;;;11.45;91.98;100646.66;185290;1233;43505;-61
2023/05/17 07:09:24;;;;;;;12.30;3.80;;;;;;;11.32;91.37;100644.13;185554;1234;43809;-61
2023/05/17 07:14:17;;;;;;;9.80;3.80;;;;;;;11.31;91.35;100649.69;184955;1233;57623;-61
2023/05/17 07:18:19;;;;;;;7.30;3.00;;;;;;;11.04;89.94;100654.41;185363;1232;43594;-61
2023/05/17 07:22:20;;;;;;;7.40;3.70;;;;;;;10.90;91.26;100655.50;185643;1233;45879;-62
2023/05/17 07:26:23;;;;;;;11.00;4.30;;;;;;;10.68;91.62;100654.16;185424;1232;44728;-62
2023/05/17 07:30:24;;;;;;;11.90;5.00;;;;;;;10.62;93.48;100653.34;185549;1232;45868;-62
2023/05/17 07:34:55;;;;;;;11.10;3.80;;;;;;;10.59;94.04;100652.90;185888;1233;59224;-62
2023/05/17 07:39:01;;;;;;;10.70;4.80;;;;;;;10.73;94.68;100645.98;185883;1233;44535;-66
2023/05/17 07:43:03;;;;;;;7.00;4.30;;;;;;;10.78;91.32;100645.06;185290;1234;146627;-63
2023/05/17 07:47:04;;;;;;;14.30;3.90;;;;;;;10.88;91.34;100642.20;185505;1233;46053;-63
2023/05/17 07:51:06;;;;;;;9.50;5.30;;;;;;;11.02;91.71;100643.73;185145;1233;43826;-62
2023/05/17 07:55:09;;;;;;;6.30;3.80;;;;;;;11.15;90.97;100653.77;185517;1233;58044;-63
2023/05/17 07:59:23;;;;;;;10.30;5.00;;;;;;;11.24;92.24;100663.02;185337;1233;43644;-63
2023/05/17 08:03:27;;;;;;;7.20;3.50;;;;;;;11.34;91.74;100666.27;183580;1235;45948;-90
2023/05/17 08:07:29;;;;;;;10.60;5.50;;;;;;;11.58;92.87;100668.00;183683;1234;45932;-90
2023/05/17 08:11:33;;;;;;;13.90;4.80;;;;;;;11.66;92.76;100667.87;182821;1234;46083;-91
2023/05/17 08:15:37;;;;;;;7.40;3.60;;;;;;;11.62;91.33;100669.45;183117;1233;58122;-90
2023/05/17 08:19:39;;;;;;;11.10;4.80;;;;;;;11.66;89.66;100672.83;183962;1234;46104;-91
2023/05/17 08:23:43;;;;;;;5.80;4.10;;;;;;;11.68;90.99;100667.90;184605;1237;46042;-90
2023/05/17 08:27:46;;;;;;;8.90;3.90;;;;;;;11.87;91.25;100670.95;184525;1237;46679;-91
2023/05/17 08:32:08;;;;;;;10.60;5.60;;;;;;;11.93;89.47;100673.37;183404;1233;45987;-89
2023/05/17 08:36:10;;;;;;;8.70;4.30;;;;;;;12.19;90.05;100669.34;183117;1237;59450;-89
2023/05/17 08:40:19;;;;;;;10.90;5.10;;;;;;;12.29;88.24;100674.34;182904;1238;45973;-89
2023/05/17 08:44:22;;;;;;;7.10;5.30;;;;;;;12.39;88.15;100674.81;183430;1237;45990;-90
2023/05/17 08:52:59;;;;;;;10.00;3.80;;;;;;;12.29;88.47;100671.67;184326;1233;46101;-88
2023/05/17 08:57:03;;;;;;;11.00;6.10;;;;;;;12.31;90.02;100675.95;182678;1235;59922;-89
2023/05/17 09:01:07;;;;;;;7.70;4.80;;;;;;;12.47;89.86;100676.65;183009;1235;46415;-89
2023/05/17 09:05:10;;;;;;;9.40;4.20;;;;;;;12.59;88.91;100683.83;183472;1234;46097;-91
2023/05/17 09:09:23;;;;;;;11.80;4.50;;;;;;;12.68;87.21;100680.56;185169;1234;45932;-92
2023/05/17 09:19:44;;;;;;;14.60;5.80;;;;;;;12.91;88.18;100684.33;185124;1234;60923;-63
2023/05/17 09:23:47;;;;;;;7.00;4.00;;;;;;;12.93;88.32;100673.86;185201;1234;46019;-62
2023/05/17 09:28:11;;;;;;;8.20;4.30;;;;;;;12.93;88.19;100672.77;185328;1233;43758;-62
2023/05/17 09:32:43;;;;;;;9.50;5.20;;;;;;;13.17;87.25;100670.75;185278;1234;43465;-62
2023/05/17 09:36:45;;;;;;;12.30;4.90;;;;;;;13.21;85.74;100665.77;185311;1234;43685;-62
2023/05/17 09:40:47;;;;;;;10.10;4.30;;;;;;;13.27;87.23;100666.64;185287;1233;58463;-62
2023/05/17 09:44:49;;;;;;;12.20;5.50;;;;;;;13.33;85.24;100673.99;185197;1234;45931;-62
2023/05/17 09:48:55;;;;;;;8.60;3.70;;;;;;;13.50;84.28;100674.52;185333;1234;44065;-63
2023/05/17 09:52:56;;;;;;;5.80;2.40;;;;;;;13.43;78.96;100675.74;185165;1234;44381;-63
2023/05/17 09:57:25;;;;;;;7.80;3.30;;;;;;;13.34;78.74;100671.40;185149;1233;44596;-62
2023/05/17 10:01:31;;;;;;;6.20;2.20;;;;;;;13.30;78.93;100671.91;185159;1233;58365;-63
2023/05/17 10:05:32;;;;;;;8.00;3.00;;;;;;;13.55;82.44;100666.02;185206;1234;46033;-63
2023/05/17 10:09:37;;;;;;;7.70;2.10;;;;;;;13.72;79.33;100672.41;185199;1234;43506;-63
2023/05/17 10:13:48;;;;;;;9.50;2.90;;;;;;;13.84;79.32;100666.98;185139;1234;43774;-63
2023/05/17 10:17:51;;;;;;;5.10;2.30;;;;;;;13.79;77.47;100662.16;185095;1234;46064;-62
2023/05/17 10:22:06;;;;;;;6.00;2.80;;;;;;;13.98;79.31;100667.40;185550;1234;57491;-63
2023/05/17 10:30:50;;;;;;;4.90;2.10;;;;;;;14.20;76.63;100677.56;182885;1235;46075;-88
2023/05/17 10:34:54;;;;;;;8.90;3.50;;;;;;;14.22;75.94;100682.91;183958;1238;45111;-89
2023/05/17 10:39:33;;;;;;;7.20;2.10;;;;;;;14.38;77.58;100684.47;184122;1235;45969;-91
2023/05/17 10:43:37;;;;;;;5.10;2.90;;;;;;;14.53;74.96;100683.87;183439;1238;59295;-91
2023/05/17 10:47:44;;;;;;;5.00;2.40;;;;;;;14.54;76.07;100678.00;183577;1236;45923;-89
2023/05/17 10:51:47;;;;;;;11.10;2.50;;;;;;;14.38;74.83;100682.88;182845;1234;46045;-90
2023/05/17 10:55:51;;;;;;;6.20;2.10;;;;;;;14.19;72.28;100676.39;184715;1235;44863;-92
2023/05/17 11:00:02;;;;;;;6.30;2.80;;;;;;;14.20;74.61;100679.50;184906;1234;44500;-91
2023/05/17 11:04:25;;;;;;;5.00;2.50;;;;;;;14.21;74.55;100679.27;184157;1235;59125;-92
2023/05/17 11:08:27;;;;;;;4.60;2.70;;;;;;;14.25;74.36;100679.09;183613;1235;46060;-89
2023/05/17 11:12:41;;;;;;;4.10;2.90;;;;;;;14.27;74.23;100677.42;183551;1234;44114;-89
2023/05/17 11:16:45;;;;;;;5.00;2.40;;;;;;;14.29;75.00;100675.02;183490;1234;46023;-89
2023/05/17 11:21:06;;;;;;;4.70;2.50;;;;;;;14.33;77.71;100676.96;183803;1235;45945;-89
2023/05/17 11:25:13;;;;;;;5.50;2.10;;;;;;;14.27;74.97;100678.74;183340;1236;59333;-90
2023/05/17 11:29:16;;;;;;;6.70;2.30;;;;;;;14.17;75.34;100677.44;182882;1235;46212;-89
2023/05/17 11:33:20;;;;;;;5.30;2.70;;;;;;;13.99;76.68;100683.14;182935;1234;46119;-91
2023/05/17 11:37:35;;;;;;;6.80;2.90;;;;;;;13.78;76.61;100682.23;183461;1235;45942;-88
2023/05/17 11:41:46;;;;;;;7.60;2.80;;;;;;;13.65;76.82;100683.69;183323;1234;44671;-91
2023/05/17 11:45:56;;;;;;;7.60;2.60;;;;;;;13.63;77.12;100683.17;183695;1234;59144;-89
2023/05/17 11:50:01;;;;;;;5.90;2.50;;;;;;;13.74;76.90;100682.70;182714;1235;46203;-89
2023/05/17 11:54:06;;;;;;;4.30;2.80;;;;;;;13.76;75.71;100687.04;183369;1238;46067;-89
2023/05/17 12:02:43;;;;;;;9.90;3.10;;;;;;;13.79;74.19;100696.88;184145;1237;46084;-90
2023/05/17 12:06:45;;;;;;;3.90;3.60;;;;;;;13.80;73.51;100695.21;183055;1233;59661;-86
2023/05/17 12:10:51;;;;;;;8.80;3.10;;;;;;;13.89;75.93;100691.71;184078;1235;46142;-90
2023/05/17 12:14:53;;;;;;;5.40;3.20;;;;;;;13.83;74.79;100688.28;182790;1237;46097;-89
2023/05/17 12:18:57;;;;;;;5.90;3.20;;;;;;;13.92;75.62;100691.15;182931;1237;45922;-88
2023/05/17 12:22:59;;;;;;;5.80;3.00;;;;;;;14.13;76.80;100685.66;183400;1234;46112;-87
2023/05/17 12:27:01;;;;;;;5.90;2.30;;;;;;;14.21;73.49;100687.66;183154;1234;58727;-89
2023/05/17 12:31:08;;;;;;;7.60;3.60;;;;;;;14.25;74.93;100684.41;183185;1234;46024;-90
2023/05/17 12:35:16;;;;;;;8.50;3.60;;;;;;;14.19;75.32;100681.92;183445;1234;45892;-90
2023/05/17 12:39:22;;;;;;;4.80;2.80;;;;;;;14.22;75.83;100689.88;183414;1234;46080;-91
2023/05/17 12:43:25;;;;;;;11.40;3.40;;;;;;;14.21;76.24;100686.01;182942;1237;45978;-89
2023/05/17 12:47:32;;;;;;;4.50;2.80;;;;;;;14.18;74.47;100690.78;183494;1237;58116;-91
2023/05/17 12:52:04;;;;;;;7.80;3.40;;;;;;;14.24;74.95;100689.11;183882;1237;44742;-90
2023/05/17 12:56:07;;;;;;;8.40;3.60;;;;;;;14.36;75.38;100685.73;183624;1234;46120;-90
2023/05/17 13:00:10;;;;;;;8.60;3.20;;;;;;;14.46;73.62;100685.70;183525;1234;45986;-90
2023/05/17 13:04:17;;;;;;;8.30;3.40;;;;;;;14.54;73.79;100681.95;183526;1238;44343;-91
2023/05/17 13:08:23;;;;;;;8.40;2.90;;;;;;;14.55;72.54;100687.02;183695;1235;58108;-90
2023/05/17 13:12:25;;;;;;;6.10;4.10;;;;;;;14.52;71.70;100688.59;183404;1234;46052;-90
2023/05/17 13:16:31;;;;;;;9.00;3.50;;;;;;;14.55;72.04;100697.05;183972;1234;45938;-89
2023/05/17 13:20:33;;;;;;;10.60;3.70;;;;;;;14.66;71.13;100696.93;183188;1234;46063;-89
2023/05/17 13:24:55;;;;;;;9.60;3.80;;;;;;;14.74;72.14;100692.69;184286;1234;45966;-91
2023/05/17 13:28:57;;;;;;;9.20;3.10;;;;;;;14.79;69.91;100690.84;184362;1234;60661;-91
2023/05/17 13:33:00;;;;;;;10.70;3.50;;;;;;;14.73;68.19;100689.91;183971;1233;44603;-89
2023/05/17 13:37:04;;;;;;;5.70;3.50;;;;;;;14.75;69.45;100691.98;183279;1234;45650;-90
2023/05/17 13:41:09;;;;;;;7.70;4.10;;;;;;;14.71;68.93;100688.83;183548;1234;45975;-89
2023/05/17 13:45:12;;;;;;;7.70;3.70;;;;;;;14.68;69.50;100691.89;183860;1237;46440;-90
2023/05/17 13:49:14;;;;;;;5.60;4.00;;;;;;;14.65;69.19;100706.12;184185;1234;59297;-89
2023/05/17 13:53:18;;;;;;;4.60;3.00;;;;;;;14.68;71.65;100713.56;184247;1234;45950;-90
2023/05/17 13:57:20;;;;;;;9.30;3.70;;;;;;;14.74;69.78;100713.02;184411;1234;46078;-90
2023/05/17 14:01:23;;;;;;;10.20;3.20;;;;;;;14.78;68.50;100712.67;184199;1234;46132;-90
2023/05/17 14:05:26;;;;;;;9.70;3.50;;;;;;;14.76;69.35;100713.03;184825;1237;46020;-91
2023/05/17 14:09:50;;;;;;;10.70;3.90;;;;;;;14.69;67.01;100719.50;185059;1233;59053;-90
2023/05/17 14:23:03;;;;;;;8.00;4.30;;;;;;;14.68;66.74;100724.92;184712;1235;45065;-91
2023/05/17 14:27:06;;;;;;;7.30;3.50;;;;;;;14.69;68.10;100725.39;184522;1237;44684;-90
2023/05/17 14:31:09;;;;;;;4.50;2.90;;;;;;;14.72;69.11;100730.98;184189;1239;59302;-90
2023/05/17 14:35:14;;;;;;;10.10;3.40;;;;;;;14.83;70.18;100738.98;184097;1235;46081;-89
2023/05/17 14:39:16;;;;;;;7.60;3.10;;;;;;;14.74;67.09;100739.95;184416;1235;45976;-90
2023/05/17 14:43:20;;;;;;;9.80;2.70;;;;;;;14.74;66.25;100741.79;184852;1236;45985;-90
2023/05/17 14:47:44;;;;;;;4.20;2.90;;;;;;;14.68;68.38;100745.13;184702;1235;45981;-91
2023/05/17 14:51:48;;;;;;;14.80;3.60;;;;;;;14.60;67.08;100752.09;184618;1235;58226;-90
2023/05/17 15:10:11;;;;;;;10.10;4.10;;;;;;;14.79;67.38;100755.75;185100;1235;86934;-58
2023/05/17 15:14:20;;;;;;;7.20;3.50;;;;;;;14.88;65.59;100753.14;185573;1234;58396;-59
2023/05/17 15:18:22;;;;;;;9.40;3.50;;;;;;;14.96;66.00;100760.08;185566;1235;44062;-59
2023/05/17 15:22:28;;;;;;;7.40;3.90;;;;;;;15.07;66.82;100762.29;185587;1234;43598;-60
2023/05/17 15:26:29;;;;;;;6.80;3.10;;;;;;;15.12;65.03;100764.65;185422;1235;45908;-58
2023/05/17 15:30:31;;;;;;;8.30;4.20;;;;;;;15.18;65.09;100767.91;185426;1234;43985;-60
2023/05/17 15:34:32;;;;;;;8.00;3.50;;;;;;;15.23;65.60;100770.42;185579;1235;57642;-58
2023/05/17 15:38:34;;;;;;;7.20;3.70;;;;;;;15.25;66.18;100779.90;185650;1235;45300;-60
2023/05/17 15:42:39;;;;;;;12.90;3.80;;;;;;;15.25;66.22;100781.11;185590;1234;43728;-59
2023/05/17 15:46:40;;;;;;;8.90;3.30;;;;;;;15.23;66.42;100782.92;185691;1235;46004;-59
2023/05/17 15:50:42;;;;;;;6.90;2.60;;;;;;;15.18;65.34;100788.04;185685;1233;44899;-59
2023/05/17 15:54:46;;;;;;;8.70;3.40;;;;;;;15.10;64.20;100790.77;185559;1232;59556;-59
2023/05/17 15:58:49;;;;;;;7.90;2.20;;;;;;;15.08;65.10;100795.93;185631;1234;43481;-59
2023/05/17 16:12:02;;;;;;;6.90;2.80;;;;;;;14.95;65.12;100803.02;185523;1234;44044;-59
2023/05/17 16:25:57;;;;;;;8.60;2.80;;;;;;;14.92;65.84;100826.52;185661;1234;44813;-60
2023/05/17 16:30:01;;;;;;;5.60;2.60;;;;;;;14.92;65.76;100827.96;185326;1234;45919;-60
2023/05/17 16:38:56;;;;;;;5.30;3.30;;;;;;;14.89;66.24;100840.77;185491;1236;85347;-58
2023/05/17 17:00:29;;;;;;;5.40;3.10;;;;;;;14.64;68.52;100849.39;185615;1235;43490;-60
2023/05/17 17:04:31;;;;;;;7.80;2.90;;;;;;;14.59;69.82;100848.95;185565;1235;59158;-59
2023/05/17 17:08:33;;;;;;;9.60;3.40;;;;;;;14.55;70.52;100849.81;185492;1235;43622;-59
2023/05/17 17:12:35;;;;;;;12.80;3.60;;;;;;;14.51;71.14;100853.20;185499;1234;43749;-59
2023/05/17 17:16:39;;;;;;;7.20;2.40;;;;;;;14.48;70.46;100850.46;185214;1233;46005;-60
2023/05/17 17:20:40;;;;;;;5.90;2.20;;;;;;;14.43;71.59;100851.59;185295;1235;44550;-59
2023/05/17 17:24:43;;;;;;;11.90;3.10;;;;;;;14.40;71.24;100858.45;185339;1235;59157;-59
2023/05/17 17:29:12;;;;;;;10.90;4.70;;;;;;;14.35;72.12;100862.10;185601;1235;43731;-59
2023/05/17 17:33:14;;;;;;;11.70;5.10;;;;;;;14.26;70.75;100869.31;185559;1234;45115;-59
2023/05/17 17:37:16;;;;;;;10.50;4.00;;;;;;;14.15;70.27;100867.60;185575;1233;43765;-59
2023/05/17 17:41:17;;;;;;;7.10;3.20;;;;;;;13.99;73.53;100866.45;185641;1233;43605;-59
2023/05/17 17:45:19;;;;;;;7.80;3.50;;;;;;;13.79;74.70;100863.92;185481;1233;58188;-59
2023/05/17 17:49:22;;;;;;;10.60;2.70;;;;;;;13.63;75.32;100872.44;185887;1233;45261;-59
2023/05/17 17:53:25;;;;;;;6.30;2.90;;;;;;;13.53;78.24;100881.25;185500;1233;43512;-58
2023/05/17 17:57:30;;;;;;;5.80;3.50;;;;;;;13.44;80.36;100886.30;185568;1235;43619;-59
2023/05/17 18:17:32;;;;;;;6.80;3.20;;;;;;;13.13;85.86;100891.50;141156;1280;44093;-59
2023/05/17 18:21:35;;;;;;;7.30;3.10;;;;;;;13.10;86.64;100901.17;177249;1283;45319;-61
2023/05/17 18:25:38;;;;;;;4.60;2.90;;;;;;;13.07;86.52;100911.96;177080;1283;43784;-59
2023/05/17 18:29:41;;;;;;;5.60;2.70;;;;;;;13.06;87.01;100919.35;177066;1283;43782;-58
2023/05/17 18:33:44;;;;;;;7.80;3.30;;;;;;;13.10;87.12;100921.27;177268;1285;43539;-58
2023/05/17 18:38:13;;;;;;;5.40;2.80;;;;;;;13.17;87.41;100925.19;177167;1282;58536;-58
2023/05/17 18:42:16;;;;;;;7.20;4.20;;;;;;;13.22;87.11;100935.95;177165;1283;43852;-59
2023/05/17 18:46:19;;;;;;;9.90;4.70;;;;;;;13.23;87.02;100940.71;177185;1282;45970;-59
2023/05/17 18:50:31;;;;;;;14.80;5.90;;;;;;;13.21;87.31;100944.08;177106;1282;46136;-59
2023/05/17 18:54:34;;;;;;;7.50;4.40;;;;;;;13.22;87.71;100950.42;177521;1283;43539;-59
2023/05/17 18:58:37;;;;;;;12.70;5.60;;;;;;;13.21;88.39;100954.95;175828;1279;88225;-88
2023/05/17 19:02:40;;;;;;;11.40;5.30;;;;;;;13.16;88.89;100963.42;174756;1278;46082;-88
2023/05/17 19:06:45;;;;;;;7.50;4.10;;;;;;;13.09;89.18;100967.52;175100;1278;46114;-88
2023/05/17 19:10:48;;;;;;;15.80;4.90;;;;;;;13.06;89.60;100969.53;176227;1271;46017;-89
2023/05/17 19:14:52;;;;;;;12.10;5.90;;;;;;;13.08;89.74;100978.10;176186;1271;46037;-89
2023/05/17 19:18:55;;;;;;;7.90;4.30;;;;;;;13.02;91.14;100985.52;176156;1270;59396;-84
2023/05/17 19:22:59;;;;;;;8.60;5.80;;;;;;;12.79;91.21;100988.42;176793;1271;45992;-84
2023/05/17 19:27:03;;;;;;;18.60;9.50;;;;;;;12.68;92.12;100987.10;175979;1274;46018;-84
2023/05/17 19:31:07;;;;;;;13.50;8.30;;;;;;;12.65;89.49;100980.81;175868;1272;46148;-84
2023/05/17 19:35:12;;;;;;;9.20;5.70;;;;;;;12.62;87.65;100980.84;176696;1273;45982;-84
2023/05/17 19:39:18;;;;;;;10.50;7.00;;;;;;;12.59;86.40;100976.63;177234;1268;60041;-84
2023/05/17 19:43:21;;;;;;;16.40;7.50;;;;;;;12.59;86.19;100982.02;176738;1268;46045;-84
2023/05/17 19:47:24;;;;;;;12.90;6.50;;;;;;;12.62;86.52;100984.82;177139;1268;46104;-84
2023/05/17 19:51:27;;;;;;;14.70;7.50;;;;;;;12.64;86.48;100987.83;177050;1270;46027;-85
2023/05/17 19:55:30;;;;;;;13.70;6.90;;;;;;;12.70;86.16;100993.23;177084;1270;46013;-85
2023/05/17 19:59:33;;;;;;;19.10;8.60;;;;;;;12.59;87.19;100997.63;176590;1271;57932;-85
2023/05/17 20:03:36;;;;;;;9.00;6.90;;;;;;;12.43;88.32;101004.20;176523;1271;45981;-85
2023/05/17 20:07:39;;;;;;;9.70;6.20;;;;;;;12.30;90.12;101007.51;176779;1268;48980;-85
2023/05/17 20:11:42;;;;;;;13.30;6.00;;;;;;;12.15;91.58;101002.50;176326;1268;46165;-85
2023/05/17 20:15:45;;;;;;;13.80;7.40;;;;;;;12.05;93.21;101002.16;176183;1271;46049;-85
2023/05/17 20:19:50;;;;;;;10.40;8.50;;;;;;;11.97;94.50;101005.41;176138;1271;57365;-85
2023/05/17 20:23:59;;;;;;;11.10;5.90;;;;;;;11.82;94.75;101009.53;176452;1274;45982;-85
2023/05/17 20:28:03;;;;;;;12.90;8.10;;;;;;;11.73;95.34;101016.09;176537;1268;46605;-86
2023/05/17 20:32:06;;;;;;;14.50;7.40;;;;;;;11.74;94.22;101020.64;177068;1265;46115;-88
2023/05/17 20:36:12;;;;;;;14.20;9.00;;;;;;;11.76;93.60;101030.07;176782;1270;46059;-86
2023/05/17 20:40:15;;;;;;;12.20;7.30;;;;;;;11.77;93.27;101035.13;177014;1268;59673;-88
2023/05/17 20:44:20;;;;;;;16.20;8.60;;;;;;;11.78;92.69;101038.78;177241;1269;46043;-88
2023/05/17 20:48:23;;;;;;;17.30;8.00;;;;;;;11.76;92.22;101043.77;176598;1267;46347;-87
2023/05/17 20:52:26;;;;;;;11.00;8.20;;;;;;;11.71;91.85;101053.01;176556;1267;46076;-87
2023/05/17 20:56:41;;;;;;;9.50;5.40;;;;;;;11.57;91.68;101053.16;176791;1267;46013;-87
2023/05/17 21:00:44;;;;;;;10.90;7.00;;;;;;;11.31;92.98;101039.03;176260;1267;57272;-87